ایروان, ارمنستان

07:12 PM AMT on ژوئیه 01, 2015 (GMT +0400)
Zvartnots | | Change Station
CLOSE
Current Station
Airport
Location: Zvartnots,
Elevation: 2838 ft
Nearby Weather Stations

Elev 2838 ft 40.15 °N, 44.40 °E | Updated 12 minutes ago

Clear
صاف
97 °F
Feels Like 97 °F
N
7
باد متغير باد from غرب

امروز
High -- | Low -- °F
--% Chance of Precip.
دیروز
High -- | Low -- °F
Precip. -- در
5:36 AM 8:35 PM
ماه کامل, 100% visible
فشار 29.86 در
ديد 6.2 مايل، ميل (در برابر كيلومتر
ابری صاف
قطره شبنم 36 °F
رطوبت 12%
بارش باران 0.00 در
برف عمیق Not available.
مادون قرمز 1 out of 12
Pollen Not available.
تمیزی هوا Not available.
Flu Activity Not available.
METAR UDYZ 011500Z 26003MPS 9999 SKC 36/02 Q1011 R09/000070 NOSIG

More Conditions Fewer Conditions

فشار 29.86 در
ديد 6.2 مايل، ميل (در برابر كيلومتر
ابری صاف
قطره شبنم 36 °F
رطوبت 12%
بارش باران 0.00 در
برف عمیق Not available.
مادون قرمز 1 out of 12
Pollen Not available.
تمیزی هوا Not available.
Flu Activity Not available.
METAR UDYZ 011500Z 26003MPS 9999 SKC 36/02 Q1011 R09/000070 NOSIG

More Conditions Fewer Conditions

10-Day Weather Forecast

×

Almanac

ستاره شناسی

Jul. 01, 2015 Rise Set
وقت حقیقی
تاریک و روشن اجتماعی
تاریک روشن دریایی
شفق و فلق نجومی
ماه
میزان روشنایی روز
طول روز
Tomorrow will be .
, % of the Moon is Illuminated

Today's Extremes

Country Highs Country Lows

Community

WunderPhotos

Upload Photos

1,834,224 photos uploaded!

WunderBlogs® & News

Nearby

تمیزی هوا

  تمیزی هوا AQ Index آلاینده
Not available.

عمق برف

Station Depth Elevation

Earthquake Activity

شهر Distance Mag. Time & Date
Minimum magnitude displayed is 2.5.

Coastal Water Temperatures

منطقه درجه حرارت

Stations

Nearby Weather Stations

Station Location دما باد سرد قطره شبنم رطوبت باد Precip. Elev ارتقا دادن Type